AOJ74J EDHL-EHGG
Flight info
| Callsign | AOJ74J |
|---|---|
| Flight time | 0h 45m |
| Altitude | 22000 |
| Route | HAM L23 WSN N125 OKWEL DCT SUQIF DCT DOBAK |
| Aircraft | C750/M-SBDE3FGHRWXY/S |
Departure
| Time | 2026-05-08 16:40 |
|---|---|
| Airport | Lübeck Blankensee Airport (EDHL) |
Arrival
| Time | 2026-05-08 17:26 |
|---|---|
| Airport | Groningen Airport Eelde (EHGG) |
| Time | Latitude | Longitude | Altitude | Speed | Heading |
|---|---|---|---|---|---|
| 2026-05-08 16:22 | 53.80422 | 10.70093 | 58 ft | 0 kts | 49° |
| 2026-05-08 16:36 | 53.80425 | 10.70098 | 58 ft | 1 kts | 50° |
| 2026-05-08 16:37 | 53.80424 | 10.70105 | 58 ft | 1 kts | 95° |
| 2026-05-08 16:37 | 53.80419 | 10.70109 | 52 ft | 1 kts | 161° |
| 2026-05-08 16:37 | 53.80408 | 10.70110 | 56 ft | 2 kts | 174° |
| 2026-05-08 16:37 | 53.80397 | 10.70112 | 56 ft | 2 kts | 174° |
| 2026-05-08 16:38 | 53.80387 | 10.70114 | 58 ft | 2 kts | 174° |
| 2026-05-08 16:38 | 53.80371 | 10.70117 | 54 ft | 2 kts | 170° |
| 2026-05-08 16:38 | 53.80352 | 10.70122 | 56 ft | 4 kts | 172° |
| 2026-05-08 16:38 | 53.80311 | 10.70135 | 55 ft | 8 kts | 168° |
| 2026-05-08 16:39 | 53.80258 | 10.70154 | 58 ft | 7 kts | 168° |
| 2026-05-08 16:39 | 53.80215 | 10.70184 | 55 ft | 7 kts | 130° |
| 2026-05-08 16:39 | 53.80214 | 10.70264 | 58 ft | 11 kts | 75° |
| 2026-05-08 16:39 | 53.80290 | 10.70657 | 53 ft | 80 kts | 72° |
| 2026-05-08 16:40 | 53.80540 | 10.71997 | 259 ft | 136 kts | 72° |
| 2026-05-08 16:40 | 53.80833 | 10.73641 | 930 ft | 155 kts | 71° |
| 2026-05-08 16:40 | 53.81174 | 10.75361 | 1700 ft | 152 kts | 71° |
| 2026-05-08 16:40 | 53.81515 | 10.77067 | 2498 ft | 155 kts | 72° |
| 2026-05-08 16:41 | 53.81867 | 10.78894 | 3139 ft | 172 kts | 72° |
| 2026-05-08 16:41 | 53.82258 | 10.80927 | 3694 ft | 192 kts | 73° |
| 2026-05-08 16:41 | 53.82692 | 10.83192 | 4225 ft | 211 kts | 73° |
| 2026-05-08 16:42 | 53.83429 | 10.88146 | 5567 ft | 241 kts | 91° |
| 2026-05-08 16:42 | 53.82858 | 10.90929 | 6248 ft | 261 kts | 123° |
| 2026-05-08 16:42 | 53.81452 | 10.92866 | 7316 ft | 268 kts | 154° |
| 2026-05-08 16:42 | 53.79586 | 10.93268 | 7801 ft | 281 kts | 186° |
| 2026-05-08 16:43 | 53.77841 | 10.91808 | 8290 ft | 286 kts | 222° |
| 2026-05-08 16:43 | 53.76844 | 10.88938 | 8864 ft | 286 kts | 254° |
| 2026-05-08 16:43 | 53.76578 | 10.85636 | 9558 ft | 283 kts | 266° |
| 2026-05-08 16:43 | 53.76393 | 10.82301 | 10212 ft | 293 kts | 263° |
| 2026-05-08 16:44 | 53.75996 | 10.78704 | 10208 ft | 331 kts | 257° |
| 2026-05-08 16:44 | 53.75410 | 10.74745 | 10207 ft | 363 kts | 256° |
| 2026-05-08 16:44 | 53.74852 | 10.70481 | 10724 ft | 370 kts | 259° |
| 2026-05-08 16:44 | 53.74389 | 10.66385 | 12346 ft | 340 kts | 259° |
| 2026-05-08 16:45 | 53.73928 | 10.62621 | 13900 ft | 320 kts | 258° |
| 2026-05-08 16:45 | 53.73445 | 10.58914 | 14671 ft | 327 kts | 258° |
| 2026-05-08 16:45 | 53.72965 | 10.55145 | 15497 ft | 329 kts | 258° |
| 2026-05-08 16:45 | 53.72493 | 10.51348 | 16345 ft | 332 kts | 258° |
| 2026-05-08 16:46 | 53.72021 | 10.47585 | 17165 ft | 333 kts | 258° |
| 2026-05-08 16:46 | 53.71531 | 10.43736 | 17670 ft | 338 kts | 258° |
| 2026-05-08 16:46 | 53.71041 | 10.39892 | 18196 ft | 341 kts | 258° |
| 2026-05-08 16:46 | 53.70541 | 10.35966 | 18747 ft | 342 kts | 258° |
| 2026-05-08 16:47 | 53.70038 | 10.32020 | 19170 ft | 344 kts | 258° |
| 2026-05-08 16:47 | 53.69702 | 10.29400 | 19453 ft | 345 kts | 258° |
| 2026-05-08 16:47 | 53.69479 | 10.27663 | 19650 ft | 346 kts | 258° |
| 2026-05-08 16:47 | 53.68968 | 10.23684 | 20102 ft | 348 kts | 258° |
| 2026-05-08 16:48 | 53.68377 | 10.19705 | 20498 ft | 351 kts | 252° |
| 2026-05-08 16:48 | 53.67455 | 10.15894 | 20962 ft | 352 kts | 247° |
| 2026-05-08 16:48 | 53.66481 | 10.12142 | 21439 ft | 354 kts | 247° |
| 2026-05-08 16:48 | 53.65511 | 10.08264 | 21712 ft | 356 kts | 248° |
| 2026-05-08 16:49 | 53.64584 | 10.04440 | 21926 ft | 358 kts | 248° |
| 2026-05-08 16:49 | 53.63629 | 10.00564 | 22161 ft | 355 kts | 248° |
| 2026-05-08 16:49 | 53.62679 | 9.96793 | 22145 ft | 343 kts | 248° |
| 2026-05-08 16:49 | 53.61767 | 9.93161 | 22140 ft | 330 kts | 248° |
| 2026-05-08 16:50 | 53.60898 | 9.89666 | 22148 ft | 317 kts | 248° |
| 2026-05-08 16:50 | 53.60055 | 9.86289 | 22147 ft | 307 kts | 248° |
| 2026-05-08 16:50 | 53.59237 | 9.83028 | 22142 ft | 298 kts | 248° |
| 2026-05-08 16:50 | 53.58441 | 9.79862 | 22145 ft | 289 kts | 248° |
| 2026-05-08 16:51 | 53.57666 | 9.76777 | 22147 ft | 282 kts | 248° |
| 2026-05-08 16:51 | 53.56911 | 9.73775 | 22148 ft | 275 kts | 248° |
| 2026-05-08 16:51 | 53.56170 | 9.70837 | 22148 ft | 270 kts | 248° |
| 2026-05-08 16:51 | 53.55443 | 9.67957 | 22148 ft | 265 kts | 248° |
| 2026-05-08 16:52 | 53.54728 | 9.65125 | 22148 ft | 261 kts | 248° |
| 2026-05-08 16:52 | 53.54022 | 9.62334 | 22150 ft | 258 kts | 248° |
| 2026-05-08 16:52 | 53.53330 | 9.59603 | 22145 ft | 256 kts | 248° |
| 2026-05-08 16:52 | 53.52633 | 9.56854 | 22152 ft | 257 kts | 248° |
| 2026-05-08 16:53 | 53.51202 | 9.51240 | 22156 ft | 265 kts | 248° |
| 2026-05-08 16:53 | 53.50470 | 9.48380 | 22159 ft | 268 kts | 247° |
| 2026-05-08 16:53 | 53.49729 | 9.45481 | 22159 ft | 272 kts | 247° |
| 2026-05-08 16:54 | 53.48977 | 9.42546 | 22159 ft | 275 kts | 247° |
| 2026-05-08 16:54 | 53.48220 | 9.39584 | 22159 ft | 278 kts | 247° |
| 2026-05-08 16:54 | 53.47452 | 9.36587 | 22162 ft | 280 kts | 247° |
| 2026-05-08 16:54 | 53.46676 | 9.33566 | 22159 ft | 283 kts | 247° |
| 2026-05-08 16:55 | 53.45895 | 9.30528 | 22162 ft | 285 kts | 247° |
| 2026-05-08 16:55 | 53.45118 | 9.27506 | 22156 ft | 287 kts | 247° |
| 2026-05-08 16:55 | 53.44323 | 9.24422 | 22165 ft | 288 kts | 247° |
| 2026-05-08 16:55 | 53.43523 | 9.21322 | 22162 ft | 290 kts | 247° |
| 2026-05-08 16:56 | 53.42720 | 9.18214 | 22161 ft | 291 kts | 247° |
| 2026-05-08 16:56 | 53.41911 | 9.15090 | 22166 ft | 292 kts | 247° |
| 2026-05-08 16:56 | 53.41100 | 9.11958 | 22162 ft | 294 kts | 247° |
| 2026-05-08 16:56 | 53.40283 | 9.08808 | 22159 ft | 295 kts | 247° |
| 2026-05-08 16:57 | 53.39462 | 9.05649 | 22163 ft | 296 kts | 247° |
| 2026-05-08 16:57 | 53.38638 | 9.02485 | 22164 ft | 296 kts | 247° |
| 2026-05-08 16:57 | 53.37823 | 8.99357 | 22160 ft | 298 kts | 247° |
| 2026-05-08 16:57 | 53.36992 | 8.96173 | 22161 ft | 298 kts | 247° |
| 2026-05-08 16:58 | 53.36160 | 8.92987 | 22162 ft | 299 kts | 246° |
| 2026-05-08 16:58 | 53.35324 | 8.89793 | 22163 ft | 300 kts | 246° |
| 2026-05-08 16:58 | 53.34524 | 8.86571 | 22147 ft | 300 kts | 251° |
| 2026-05-08 16:58 | 53.33826 | 8.83281 | 22149 ft | 300 kts | 250° |
| 2026-05-08 16:59 | 53.33079 | 8.80018 | 22151 ft | 301 kts | 249° |
| 2026-05-08 16:59 | 53.32340 | 8.76745 | 22154 ft | 301 kts | 250° |
| 2026-05-08 16:59 | 53.31620 | 8.73457 | 22161 ft | 301 kts | 250° |
| 2026-05-08 16:59 | 53.30896 | 8.70161 | 22161 ft | 302 kts | 250° |
| 2026-05-08 17:00 | 53.30164 | 8.66869 | 22163 ft | 302 kts | 250° |
| 2026-05-08 17:00 | 53.29429 | 8.63567 | 22160 ft | 303 kts | 250° |
| 2026-05-08 17:00 | 53.28710 | 8.60262 | 22163 ft | 303 kts | 250° |
| 2026-05-08 17:00 | 53.27990 | 8.56951 | 22163 ft | 303 kts | 250° |
| 2026-05-08 17:01 | 53.27262 | 8.53639 | 22162 ft | 303 kts | 250° |
| 2026-05-08 17:01 | 53.26532 | 8.50321 | 22161 ft | 303 kts | 250° |
| 2026-05-08 17:01 | 53.25923 | 8.46956 | 22154 ft | 303 kts | 253° |
| 2026-05-08 17:01 | 53.25279 | 8.43615 | 22152 ft | 303 kts | 252° |
| 2026-05-08 17:02 | 53.24628 | 8.40314 | 22154 ft | 303 kts | 252° |
| 2026-05-08 17:02 | 53.23997 | 8.36958 | 22153 ft | 303 kts | 253° |
| 2026-05-08 17:02 | 53.23376 | 8.33606 | 22158 ft | 302 kts | 253° |
| 2026-05-08 17:02 | 53.22741 | 8.30246 | 22159 ft | 302 kts | 252° |
| 2026-05-08 17:03 | 53.22102 | 8.26901 | 22158 ft | 302 kts | 252° |
| 2026-05-08 17:03 | 53.21466 | 8.23555 | 22161 ft | 302 kts | 252° |
| 2026-05-08 17:03 | 53.20832 | 8.20207 | 22161 ft | 303 kts | 252° |
| 2026-05-08 17:03 | 53.20194 | 8.16859 | 22163 ft | 303 kts | 252° |
| 2026-05-08 17:04 | 53.19558 | 8.13516 | 22158 ft | 302 kts | 253° |
| 2026-05-08 17:04 | 53.19297 | 8.10061 | 22102 ft | 301 kts | 273° |
| 2026-05-08 17:04 | 53.19485 | 8.06607 | 22161 ft | 299 kts | 275° |
| 2026-05-08 17:04 | 53.19664 | 8.03152 | 22159 ft | 299 kts | 274° |
| 2026-05-08 17:05 | 53.19825 | 7.99741 | 22160 ft | 299 kts | 274° |
| 2026-05-08 17:05 | 53.19992 | 7.96271 | 22166 ft | 300 kts | 274° |
| 2026-05-08 17:05 | 53.20165 | 7.92800 | 22163 ft | 300 kts | 274° |
| 2026-05-08 17:05 | 53.20336 | 7.89320 | 22161 ft | 301 kts | 274° |
| 2026-05-08 17:06 | 53.20503 | 7.85832 | 22163 ft | 302 kts | 274° |
| 2026-05-08 17:06 | 53.20670 | 7.82340 | 22158 ft | 302 kts | 274° |
| 2026-05-08 17:06 | 53.20838 | 7.78841 | 22156 ft | 303 kts | 274° |
| 2026-05-08 17:06 | 53.21005 | 7.75333 | 22157 ft | 303 kts | 274° |
| 2026-05-08 17:07 | 53.21170 | 7.71830 | 22156 ft | 303 kts | 274° |
| 2026-05-08 17:07 | 53.21334 | 7.68322 | 22119 ft | 304 kts | 274° |
| 2026-05-08 17:07 | 53.21501 | 7.64712 | 21508 ft | 319 kts | 274° |
| 2026-05-08 17:07 | 53.21675 | 7.60943 | 20788 ft | 329 kts | 274° |
| 2026-05-08 17:08 | 53.21686 | 7.57126 | 20081 ft | 324 kts | 268° |
| 2026-05-08 17:08 | 53.21647 | 7.53570 | 19409 ft | 303 kts | 269° |
| 2026-05-08 17:08 | 53.21627 | 7.50105 | 18717 ft | 294 kts | 269° |
| 2026-05-08 17:08 | 53.21600 | 7.46733 | 17916 ft | 286 kts | 269° |
| 2026-05-08 17:09 | 53.21566 | 7.43482 | 17065 ft | 274 kts | 269° |
| 2026-05-08 17:09 | 53.21533 | 7.40353 | 16241 ft | 266 kts | 269° |
| 2026-05-08 17:09 | 53.21503 | 7.37317 | 15477 ft | 258 kts | 269° |
| 2026-05-08 17:09 | 53.21474 | 7.34389 | 15026 ft | 252 kts | 269° |
| 2026-05-08 17:10 | 53.21444 | 7.31511 | 15016 ft | 243 kts | 269° |
| 2026-05-08 17:10 | 53.21413 | 7.28712 | 15010 ft | 243 kts | 269° |
| 2026-05-08 17:10 | 53.21380 | 7.25830 | 14897 ft | 253 kts | 269° |
| 2026-05-08 17:10 | 53.21345 | 7.22791 | 14590 ft | 271 kts | 269° |
| 2026-05-08 17:11 | 53.21387 | 7.19622 | 14227 ft | 275 kts | 272° |
| 2026-05-08 17:11 | 53.21399 | 7.16443 | 13859 ft | 280 kts | 269° |
| 2026-05-08 17:11 | 53.21376 | 7.13158 | 13457 ft | 285 kts | 269° |
| 2026-05-08 17:11 | 53.21391 | 7.09831 | 13077 ft | 287 kts | 270° |
| 2026-05-08 17:12 | 53.21422 | 7.06492 | 12688 ft | 289 kts | 270° |
| 2026-05-08 17:12 | 53.21441 | 7.03143 | 12310 ft | 289 kts | 270° |
| 2026-05-08 17:12 | 53.21452 | 6.99785 | 11926 ft | 290 kts | 270° |
| 2026-05-08 17:12 | 53.21466 | 6.96421 | 11542 ft | 290 kts | 270° |
| 2026-05-08 17:13 | 53.21481 | 6.93046 | 11048 ft | 291 kts | 270° |
| 2026-05-08 17:13 | 53.21493 | 6.89666 | 10559 ft | 291 kts | 270° |
| 2026-05-08 17:13 | 53.21501 | 6.86291 | 10005 ft | 292 kts | 270° |
| 2026-05-08 17:13 | 53.21508 | 6.82873 | 9201 ft | 296 kts | 270° |
| 2026-05-08 17:14 | 53.21517 | 6.79422 | 8421 ft | 299 kts | 270° |
| 2026-05-08 17:14 | 53.21526 | 6.75947 | 7662 ft | 300 kts | 270° |
| 2026-05-08 17:14 | 53.21538 | 6.72487 | 7055 ft | 295 kts | 270° |
| 2026-05-08 17:14 | 53.21551 | 6.69089 | 6593 ft | 289 kts | 270° |
| 2026-05-08 17:15 | 53.21566 | 6.65787 | 6200 ft | 281 kts | 270° |
| 2026-05-08 17:15 | 53.21579 | 6.62566 | 5803 ft | 274 kts | 270° |
| 2026-05-08 17:15 | 53.21106 | 6.59611 | 5359 ft | 267 kts | 238° |
| 2026-05-08 17:15 | 53.19867 | 6.57324 | 5094 ft | 268 kts | 221° |
| 2026-05-08 17:16 | 53.18520 | 6.55161 | 4978 ft | 268 kts | 225° |
| 2026-05-08 17:16 | 53.17378 | 6.52760 | 4834 ft | 259 kts | 233° |
| 2026-05-08 17:16 | 53.16385 | 6.50343 | 4692 ft | 243 kts | 233° |
| 2026-05-08 17:16 | 53.15427 | 6.48163 | 4516 ft | 225 kts | 231° |
| 2026-05-08 17:17 | 53.14504 | 6.46167 | 4327 ft | 210 kts | 231° |
| 2026-05-08 17:17 | 53.13627 | 6.44250 | 4150 ft | 206 kts | 231° |
| 2026-05-08 17:17 | 53.12776 | 6.42373 | 3999 ft | 200 kts | 231° |
| 2026-05-08 17:17 | 53.11946 | 6.40537 | 3853 ft | 196 kts | 231° |
| 2026-05-08 17:18 | 53.11141 | 6.38765 | 3722 ft | 193 kts | 231° |
| 2026-05-08 17:18 | 53.10338 | 6.36997 | 3589 ft | 190 kts | 231° |
| 2026-05-08 17:18 | 53.09543 | 6.35250 | 3456 ft | 188 kts | 231° |
| 2026-05-08 17:18 | 53.08757 | 6.33522 | 3317 ft | 187 kts | 231° |
| 2026-05-08 17:19 | 53.07975 | 6.31808 | 3189 ft | 184 kts | 231° |
| 2026-05-08 17:19 | 53.07180 | 6.30163 | 3030 ft | 177 kts | 222° |
| 2026-05-08 17:19 | 53.06136 | 6.29242 | 2833 ft | 171 kts | 191° |
| 2026-05-08 17:19 | 53.04993 | 6.29200 | 2644 ft | 160 kts | 166° |
| 2026-05-08 17:20 | 53.04018 | 6.29921 | 2494 ft | 151 kts | 142° |
| 2026-05-08 17:20 | 53.03209 | 6.30990 | 2359 ft | 148 kts | 139° |
| 2026-05-08 17:20 | 53.02423 | 6.32056 | 2216 ft | 140 kts | 131° |
| 2026-05-08 17:20 | 53.01939 | 6.33329 | 2010 ft | 126 kts | 109° |
| 2026-05-08 17:21 | 53.01788 | 6.34236 | 1942 ft | 119 kts | 96° |
| 2026-05-08 17:21 | 53.01791 | 6.35565 | 1981 ft | 117 kts | 78° |
| 2026-05-08 17:21 | 53.02069 | 6.36936 | 1970 ft | 131 kts | 63° |
| 2026-05-08 17:21 | 53.02621 | 6.38151 | 2028 ft | 134 kts | 51° |
| 2026-05-08 17:22 | 53.03178 | 6.39340 | 1992 ft | 126 kts | 53° |
| 2026-05-08 17:22 | 53.03714 | 6.40483 | 1994 ft | 128 kts | 52° |
| 2026-05-08 17:22 | 53.04278 | 6.41676 | 2011 ft | 134 kts | 53° |
| 2026-05-08 17:22 | 53.04859 | 6.42903 | 2013 ft | 135 kts | 53° |
| 2026-05-08 17:23 | 53.05438 | 6.44123 | 1885 ft | 135 kts | 52° |
| 2026-05-08 17:23 | 53.06024 | 6.45359 | 1708 ft | 137 kts | 52° |
| 2026-05-08 17:23 | 53.06607 | 6.46585 | 1518 ft | 134 kts | 52° |
| 2026-05-08 17:23 | 53.07185 | 6.47803 | 1326 ft | 133 kts | 52° |
| 2026-05-08 17:24 | 53.07761 | 6.49019 | 1123 ft | 137 kts | 52° |
| 2026-05-08 17:24 | 53.08364 | 6.50286 | 871 ft | 140 kts | 52° |
| 2026-05-08 17:24 | 53.08983 | 6.51557 | 686 ft | 142 kts | 52° |
| 2026-05-08 17:24 | 53.09595 | 6.52862 | 491 ft | 143 kts | 53° |
| 2026-05-08 17:25 | 53.10207 | 6.54158 | 316 ft | 142 kts | 53° |
| 2026-05-08 17:25 | 53.10810 | 6.55443 | 123 ft | 138 kts | 54° |
| 2026-05-08 17:25 | 53.11367 | 6.56635 | 20 ft | 118 kts | 54° |
| 2026-05-08 17:25 | 53.11770 | 6.57489 | 20 ft | 66 kts | 51° |
| 2026-05-08 17:26 | 53.12000 | 6.57976 | 21 ft | 47 kts | 52° |
| 2026-05-08 17:26 | 53.12184 | 6.58365 | 20 ft | 41 kts | 52° |
| 2026-05-08 17:26 | 53.12351 | 6.58714 | 18 ft | 36 kts | 52° |
| 2026-05-08 17:26 | 53.12486 | 6.58985 | 20 ft | 14 kts | 22° |
| 2026-05-08 17:27 | 53.12569 | 6.58963 | 21 ft | 11 kts | 341° |
| 2026-05-08 17:27 | 53.12621 | 6.58881 | 19 ft | 10 kts | 307° |
| 2026-05-08 17:27 | 53.12666 | 6.58788 | 19 ft | 12 kts | 310° |
| 2026-05-08 17:27 | 53.12722 | 6.58675 | 19 ft | 14 kts | 308° |
| 2026-05-08 17:28 | 53.12713 | 6.58530 | 19 ft | 15 kts | 224° |
| 2026-05-08 17:28 | 53.12652 | 6.58401 | 19 ft | 14 kts | 230° |
| 2026-05-08 17:28 | 53.12666 | 6.58310 | 19 ft | 10 kts | 321° |
| 2026-05-08 17:28 | 53.12724 | 6.58234 | 19 ft | 13 kts | 322° |
| 2026-05-08 17:29 | 53.12790 | 6.58264 | 19 ft | 16 kts | 39° |
| 2026-05-08 17:29 | 53.12888 | 6.58395 | 19 ft | 15 kts | 39° |
| 2026-05-08 17:29 | 53.12942 | 6.58405 | 21 ft | 9 kts | 335° |
| 2026-05-08 17:29 | 53.12989 | 6.58402 | 19 ft | 6 kts | 52° |
| 2026-05-08 17:30 | 53.12973 | 6.58453 | 19 ft | 7 kts | 174° |
| 2026-05-08 17:30 | 53.12961 | 6.58449 | 20 ft | 0 kts | 193° |